Lisbon, North Dakota
Current Conditions -  °F | °C
As of 8:55 PM on Wednesday 22 Oct 2014 (Local Time) from KGWR Reporting Station
Broken Clouds Broken Clouds  
Wind Chill: 52°   Ceiling: 10000
Heat Index: 52°   Visibility: 10mi
Dew Point: 52°   Wind: 8mph
Humidity: 100%   Direction: 210°SSW
Pressure: 29.92"   Gusts: NA
Location:  46.44°N, 97.68°W
Report Text: KGWR 230155Z AUTO 21007KT 10SM BKN100 11/11 A2992 RMK A01 P000
Loading
Personal Weather Stations






























Interactive Weather Map
Tropical Storm Tracking
New forecast layout! Learn more

10-Day Weather Forecast

Advertisements
Track Severe Weather on mobile